createdAt,value
2018-02-19T00:00:23.917Z,25.07
2018-02-19T00:02:52.195Z,26.80
2018-02-19T00:05:19.717Z,25.77
2018-02-19T00:07:47.326Z,26.87
2018-02-19T00:10:14.893Z,26.80
2018-02-19T00:12:42.409Z,24.07
2018-02-19T00:15:09.915Z,25.80
2018-02-19T00:17:37.431Z,25.57
2018-02-19T00:20:05.736Z,24.97
2018-02-19T00:22:33.239Z,26.67
2018-02-19T00:25:00.762Z,25.13
2018-02-19T00:27:28.296Z,23.80
2018-02-19T00:29:56.594Z,24.60
2018-02-19T00:32:24.225Z,26.37
2018-02-19T00:34:51.795Z,24.00
2018-02-19T00:37:19.674Z,24.47
2018-02-19T00:39:57.487Z,25.50
2018-02-19T00:42:25.232Z,23.00
2018-02-19T00:44:52.766Z,24.90
2018-02-19T00:47:21.185Z,23.73
2018-02-19T00:49:51.118Z,25.27
2018-02-19T00:52:18.961Z,23.10
2018-02-19T00:54:47.422Z,24.23
2018-02-19T00:57:17.378Z,23.93
2018-02-19T00:59:46.536Z,25.00
2018-02-19T01:02:15.108Z,24.70
2018-02-19T01:04:43.813Z,26.70
2018-02-19T01:07:13.004Z,25.23
2018-02-19T01:09:41.611Z,23.00
2018-02-19T01:12:10.430Z,23.17
2018-02-19T01:14:39.133Z,21.80
2018-02-19T01:17:08.264Z,22.23
2018-02-19T01:19:37.405Z,24.50
2018-02-19T01:22:06.761Z,24.20
2018-02-19T01:24:36.990Z,23.10
2018-02-19T01:27:05.171Z,24.10
2018-02-19T01:29:34.350Z,22.10
2018-02-19T01:32:02.266Z,25.10
2018-02-19T01:34:31.352Z,21.83
2018-02-19T01:37:00.295Z,23.03
2018-02-19T01:39:29.113Z,22.60
2018-02-19T01:41:58.781Z,22.70
2018-02-19T01:44:28.543Z,23.27
2018-02-19T01:46:56.887Z,21.00
2018-02-19T01:49:25.152Z,23.40
2018-02-19T01:51:53.545Z,21.40
2018-02-19T01:54:21.049Z,20.27
2018-02-19T01:56:48.556Z,19.57
2018-02-19T01:59:16.812Z,21.10
2018-02-19T02:01:45.093Z,22.00
2018-02-19T02:04:13.349Z,18.93
2018-02-19T02:06:40.963Z,22.03
2018-02-19T02:09:08.470Z,21.03
2018-02-19T02:11:36.762Z,20.30
2018-02-19T02:14:05.025Z,18.97
2018-02-19T02:16:33.319Z,19.70
2018-02-19T02:19:00.828Z,20.80
2018-02-19T02:21:28.437Z,21.57
2018-02-19T02:23:56.021Z,21.47
2018-02-19T02:26:23.518Z,19.60
2018-02-19T02:28:51.089Z,21.60
2018-02-19T02:31:18.554Z,20.90
2018-02-19T02:33:46.806Z,22.83
2018-02-19T02:36:14.406Z,18.43
2018-02-19T02:38:41.916Z,20.10
2018-02-19T02:41:09.436Z,21.83
2018-02-19T02:43:36.936Z,18.90
2018-02-19T02:46:04.456Z,20.30
2018-02-19T02:48:31.967Z,18.60
2018-02-19T02:51:00.242Z,20.37
2018-02-19T02:53:28.642Z,19.00
2018-02-19T02:55:56.203Z,19.17
2018-02-19T02:58:23.698Z,19.27
2018-02-19T03:00:51.209Z,18.83
2018-02-19T03:03:18.714Z,19.47
2018-02-19T03:05:46.230Z,19.10
2018-02-19T03:08:13.728Z,18.77
2018-02-19T03:10:41.235Z,19.23
2018-02-19T03:13:08.784Z,17.80
2018-02-19T03:15:36.313Z,20.03
2018-02-19T03:18:03.814Z,19.57
2018-02-19T03:20:31.307Z,19.30
2018-02-19T03:22:58.806Z,21.27
2018-02-19T03:25:27.082Z,19.20
2018-02-19T03:27:55.343Z,18.30
2018-02-19T03:30:23.623Z,19.20
2018-02-19T03:32:51.913Z,19.77
2018-02-19T03:35:19.425Z,20.33
2018-02-19T03:37:46.934Z,21.40
2018-02-19T03:40:14.451Z,19.40
2018-02-19T03:42:42.003Z,20.33
2018-02-19T03:45:09.638Z,18.93
2018-02-19T03:47:37.869Z,19.33
2018-02-19T03:50:05.429Z,19.80
2018-02-19T03:52:32.920Z,19.37
2018-02-19T03:55:00.449Z,18.33
2018-02-19T03:57:28.004Z,20.67
2018-02-19T03:59:55.491Z,17.40
2018-02-19T04:02:23.003Z,17.03
2018-02-19T04:04:51.392Z,18.07
2018-02-19T04:07:18.914Z,21.33
2018-02-19T04:09:46.504Z,19.93
2018-02-19T04:12:14.780Z,19.77
2018-02-19T04:14:42.288Z,19.63
2018-02-19T04:17:09.801Z,18.80
2018-02-19T04:19:37.320Z,20.57
2018-02-19T04:22:04.811Z,18.47
2018-02-19T04:24:32.371Z,18.93
2018-02-19T04:26:59.879Z,19.90
2018-02-19T04:29:27.478Z,19.23
2018-02-19T04:31:55.855Z,15.53
2018-02-19T04:34:24.113Z,16.80
2018-02-19T04:36:52.392Z,16.30
2018-02-19T04:39:20.647Z,14.70
2018-02-19T04:41:48.157Z,15.00
2018-02-19T04:44:16.553Z,14.00
2018-02-19T04:46:44.545Z,14.50
2018-02-19T04:49:12.082Z,17.17
2018-02-19T04:51:39.576Z,15.10
2018-02-19T04:54:07.170Z,16.10
2018-02-19T04:56:34.733Z,17.47
2018-02-19T04:59:02.235Z,14.90
2018-02-19T05:01:29.789Z,17.10
2018-02-19T05:03:57.379Z,16.80
2018-02-19T05:06:25.654Z,17.70
2018-02-19T05:08:53.915Z,16.43
2018-02-19T05:11:22.317Z,17.70
2018-02-19T05:13:49.863Z,15.93
2018-02-19T05:16:18.129Z,15.33
2018-02-19T05:18:46.519Z,15.17
2018-02-19T05:21:14.082Z,16.77
2018-02-19T05:23:41.601Z,18.37
2018-02-19T05:26:09.190Z,15.90
2018-02-19T05:28:36.747Z,14.17
2018-02-19T05:31:04.259Z,16.13
2018-02-19T05:33:31.753Z,15.30
2018-02-19T05:36:00.033Z,18.40
2018-02-19T05:38:28.319Z,18.13
2018-02-19T05:40:55.874Z,18.00
2018-02-19T05:43:23.378Z,16.30
2018-02-19T05:45:50.979Z,19.10
2018-02-19T05:48:19.247Z,16.23
2018-02-19T05:50:47.536Z,16.30
2018-02-19T05:53:15.087Z,19.27
2018-02-19T05:55:43.482Z,18.87
2018-02-19T05:58:10.995Z,18.80
2018-02-19T06:00:39.479Z,19.80
2018-02-19T06:03:06.987Z,18.63
2018-02-19T06:05:34.495Z,20.20
2018-02-19T06:08:02.082Z,18.53
2018-02-19T06:10:29.641Z,19.50
2018-02-19T06:12:57.219Z,17.60
2018-02-19T06:15:24.725Z,20.07
2018-02-19T06:17:53.733Z,20.90
2018-02-19T06:20:22.008Z,20.97
2018-02-19T06:22:50.264Z,19.33
2018-02-19T06:25:17.780Z,20.87
2018-02-19T06:27:45.268Z,17.67
2018-02-19T06:30:12.871Z,18.83
2018-02-19T06:32:40.363Z,21.77
2018-02-19T06:35:07.881Z,23.00
2018-02-19T06:37:35.407Z,20.93
2018-02-19T06:40:02.903Z,19.70
2018-02-19T06:42:30.405Z,21.00
2018-02-19T06:44:58.030Z,21.20
2018-02-19T06:47:25.527Z,21.80
2018-02-19T06:49:53.824Z,22.87
2018-02-19T06:52:22.095Z,19.20
2018-02-19T06:54:49.578Z,21.33
2018-02-19T06:57:17.097Z,20.80
2018-02-19T06:59:44.610Z,21.40
2018-02-19T07:02:12.112Z,23.70
2018-02-19T07:04:39.618Z,21.50
2018-02-19T07:07:07.157Z,20.87
2018-02-19T07:09:34.713Z,21.40
2018-02-19T07:12:02.225Z,20.70
2018-02-19T07:14:29.738Z,20.57
2018-02-19T07:16:57.259Z,20.73
2018-02-19T07:19:24.752Z,23.30
2018-02-19T07:21:52.251Z,22.50
2018-02-19T07:24:19.876Z,23.20
2018-02-19T07:26:47.435Z,19.83
2018-02-19T07:29:14.929Z,23.23
2018-02-19T07:31:42.448Z,22.07
2018-02-19T07:34:09.975Z,20.80
2018-02-19T07:36:38.267Z,23.53
2018-02-19T07:39:05.785Z,22.20
2018-02-19T07:41:33.375Z,23.63
2018-02-19T07:44:01.158Z,22.00
2018-02-19T07:46:28.659Z,22.90
2018-02-19T07:48:56.267Z,21.30
2018-02-19T07:51:23.767Z,21.97
2018-02-19T07:53:51.266Z,23.27
2018-02-19T07:56:18.770Z,22.67
2018-02-19T07:58:46.379Z,23.40
2018-02-19T08:01:14.762Z,23.93
2018-02-19T08:03:42.311Z,23.27
2018-02-19T08:06:10.584Z,22.40
2018-02-19T08:08:38.861Z,22.80
2018-02-19T08:11:07.120Z,24.13
2018-02-19T08:13:35.407Z,23.90
2018-02-19T08:16:03.657Z,24.60
2018-02-19T08:18:31.254Z,23.10
2018-02-19T08:20:58.764Z,23.80
2018-02-19T08:23:26.251Z,24.00
2018-02-19T08:25:54.642Z,22.43
2018-02-19T08:28:22.162Z,24.07
2018-02-19T08:30:50.447Z,22.80
2018-02-19T08:33:18.728Z,21.20
2018-02-19T08:35:47.009Z,23.27
2018-02-19T08:38:15.293Z,22.07
2018-02-19T08:40:42.791Z,21.40
2018-02-19T08:43:10.309Z,23.80
2018-02-19T08:45:37.833Z,22.70
2018-02-19T08:48:06.109Z,23.33
2018-02-19T08:50:33.695Z,24.50
2018-02-19T08:53:01.223Z,24.23
2018-02-19T08:55:28.746Z,22.90
2018-02-19T08:57:56.249Z,23.97
2018-02-19T09:00:24.536Z,25.30
2018-02-19T09:02:52.051Z,21.73
2018-02-19T09:05:19.559Z,23.40
2018-02-19T09:07:47.136Z,22.27
2018-02-19T09:10:14.667Z,21.67
2018-02-19T09:12:43.028Z,19.03
2018-02-19T09:15:11.328Z,19.70
2018-02-19T09:17:38.837Z,19.90
2018-02-19T09:20:06.370Z,20.00
2018-02-19T09:22:33.881Z,22.47
2018-02-19T09:25:02.146Z,21.10
2018-02-19T09:27:30.433Z,21.07
2018-02-19T09:29:58.702Z,22.87
2018-02-19T09:32:26.957Z,20.37
2018-02-19T09:34:54.470Z,19.60
2018-02-19T09:37:21.974Z,22.07
2018-02-19T09:39:49.484Z,23.03
2018-02-19T09:42:16.997Z,25.10
2018-02-19T09:44:45.251Z,23.70
2018-02-19T09:47:12.759Z,23.63
2018-02-19T09:49:40.261Z,23.23
2018-02-19T09:52:07.780Z,22.50
2018-02-19T09:54:35.294Z,23.47
2018-02-19T09:57:02.880Z,21.87
2018-02-19T09:59:30.393Z,22.43
2018-02-19T10:01:57.922Z,21.40
2018-02-19T10:04:25.437Z,21.50
2018-02-19T10:06:53.710Z,18.57
2018-02-19T10:09:21.972Z,20.07
2018-02-19T10:11:49.482Z,21.27
2018-02-19T10:14:16.987Z,20.97
2018-02-19T10:16:44.596Z,19.77
2018-02-19T10:19:12.087Z,18.60
2018-02-19T10:21:39.579Z,17.00
2018-02-19T10:24:07.094Z,16.83
2018-02-19T10:26:34.706Z,19.07
2018-02-19T10:29:02.260Z,18.30
2018-02-19T10:31:29.768Z,16.20
2018-02-19T10:33:57.261Z,18.07
2018-02-19T10:36:25.532Z,19.30
2018-02-19T10:38:53.816Z,19.07
2018-02-19T10:41:21.304Z,18.90
2018-02-19T10:43:48.800Z,18.63
2018-02-19T10:46:16.388Z,18.20
2018-02-19T10:48:44.649Z,18.23
2018-02-19T10:51:12.936Z,17.20
2018-02-19T10:53:40.498Z,17.80
2018-02-19T10:56:08.010Z,16.43
2018-02-19T10:58:35.511Z,19.27
2018-02-19T11:01:03.081Z,18.07
2018-02-19T11:03:30.613Z,17.23
2018-02-19T11:05:58.877Z,16.10
2018-02-19T11:08:27.145Z,18.10
2018-02-19T11:10:54.645Z,18.50
2018-02-19T11:13:22.179Z,19.27
2018-02-19T11:15:50.464Z,18.63
2018-02-19T11:18:18.593Z,18.97
2018-02-19T11:20:46.221Z,21.20
2018-02-19T11:23:13.749Z,18.87
2018-02-19T11:25:41.235Z,20.30
2018-02-19T11:28:08.870Z,20.80
2018-02-19T11:30:36.373Z,19.53
2018-02-19T11:33:03.860Z,21.17
2018-02-19T11:35:32.146Z,21.03
2018-02-19T11:38:00.404Z,20.13
2018-02-19T11:40:28.691Z,24.60
2018-02-19T11:42:57.181Z,25.60
2018-02-19T11:45:25.439Z,25.80
2018-02-19T11:47:53.724Z,26.67
2018-02-19T11:50:22.007Z,27.00
2018-02-19T11:52:49.505Z,28.03
2018-02-19T11:55:17.017Z,29.37
2018-02-19T11:57:44.576Z,28.53
2018-02-19T12:00:12.080Z,27.77
2018-02-19T12:02:39.579Z,29.10
2018-02-19T12:05:07.973Z,30.43
2018-02-19T12:07:35.468Z,29.37
2018-02-19T12:10:02.983Z,27.00
2018-02-19T12:12:30.497Z,29.50
2018-02-19T12:14:57.987Z,31.83
2018-02-19T12:17:26.289Z,31.03
2018-02-19T12:19:53.782Z,28.03
2018-02-19T12:22:21.384Z,27.67
2018-02-19T12:24:48.906Z,26.37
2018-02-19T12:27:16.400Z,27.90
2018-02-19T12:29:43.899Z,28.17
2018-02-19T12:32:11.411Z,26.87
2018-02-19T12:34:38.967Z,26.60
2018-02-19T12:37:06.497Z,27.97
2018-02-19T12:39:34.054Z,28.27
2018-02-19T12:42:01.519Z,29.37
2018-02-19T12:44:29.829Z,28.27
2018-02-19T12:46:57.341Z,27.77
2018-02-19T12:49:24.834Z,28.97
2018-02-19T12:51:52.396Z,28.53
2018-02-19T12:54:19.896Z,27.90
2018-02-19T12:56:47.505Z,26.23
2018-02-19T12:59:15.036Z,27.17
2018-02-19T13:01:43.318Z,26.27
2018-02-19T13:04:11.612Z,25.30
2018-02-19T13:06:39.166Z,29.30
2018-02-19T13:09:06.688Z,27.70
2018-02-19T13:11:34.189Z,27.27
2018-02-19T13:14:01.713Z,26.30
2018-02-19T13:16:29.997Z,28.13
2018-02-19T13:18:58.263Z,26.03
2018-02-19T13:21:26.543Z,28.10
2018-02-19T13:23:54.807Z,27.27
2018-02-19T13:26:23.101Z,27.90
2018-02-19T13:28:51.377Z,26.90
2018-02-19T13:31:19.655Z,26.87
2018-02-19T13:33:47.184Z,26.23
2018-02-19T13:36:14.691Z,25.93
2018-02-19T13:38:42.198Z,27.97
2018-02-19T13:41:09.793Z,26.50
2018-02-19T13:43:39.823Z,25.80
2018-02-19T13:46:07.329Z,26.07
2018-02-19T13:48:34.836Z,24.23
2018-02-19T13:51:02.331Z,25.27
2018-02-19T13:53:29.831Z,25.00
2018-02-19T13:55:57.391Z,24.70
2018-02-19T13:58:24.949Z,26.43
2018-02-19T14:00:52.452Z,25.50
2018-02-19T14:03:20.002Z,24.40
2018-02-19T14:05:47.625Z,24.33
2018-02-19T14:08:15.127Z,23.70
2018-02-19T14:10:42.657Z,23.27
2018-02-19T14:13:10.184Z,23.63
2018-02-19T14:15:38.449Z,25.03
2018-02-19T14:18:06.758Z,26.20
2018-02-19T14:20:34.420Z,23.27
2018-02-19T14:23:01.940Z,28.17
2018-02-19T14:25:30.234Z,27.03
2018-02-19T14:27:57.753Z,27.47
2018-02-19T14:30:25.242Z,22.37
2018-02-19T14:32:53.495Z,25.37
2018-02-19T14:35:21.014Z,23.50
2018-02-19T14:37:48.502Z,22.20
2018-02-19T14:40:16.021Z,24.70
2018-02-19T14:42:43.610Z,23.17
2018-02-19T14:45:11.126Z,25.13
2018-02-19T14:47:38.631Z,25.00
2018-02-19T14:50:06.212Z,22.80
2018-02-19T14:52:34.608Z,23.37
2018-02-19T14:55:02.112Z,26.23
2018-02-19T14:57:29.713Z,24.93
2018-02-19T14:59:57.223Z,23.47
2018-02-19T15:02:24.730Z,25.10
2018-02-19T15:04:52.254Z,24.40
2018-02-19T15:07:19.743Z,26.23
2018-02-19T15:09:47.263Z,25.30
2018-02-19T15:12:14.775Z,25.40
2018-02-19T15:14:42.313Z,25.07
2018-02-19T15:17:09.806Z,24.20
2018-02-19T15:19:37.304Z,26.30
2018-02-19T15:22:05.581Z,25.27
2018-02-19T15:24:33.848Z,25.87
2018-02-19T15:27:01.347Z,23.70
2018-02-19T15:29:28.844Z,25.87
2018-02-19T15:31:56.331Z,25.97
2018-02-19T15:34:24.607Z,25.63
2018-02-19T15:36:53.425Z,25.90
2018-02-19T15:39:20.937Z,24.03
2018-02-19T15:41:49.197Z,24.27
2018-02-19T15:44:16.711Z,24.93
2018-02-19T15:46:44.300Z,25.10
2018-02-19T15:49:11.796Z,26.30
2018-02-19T15:51:40.092Z,27.20
2018-02-19T15:54:07.725Z,25.13
2018-02-19T15:56:35.994Z,26.13
2018-02-19T15:59:04.308Z,23.20
2018-02-19T16:01:31.814Z,24.83
2018-02-19T16:03:59.425Z,23.20
2018-02-19T16:06:26.952Z,24.47
2018-02-19T16:08:55.227Z,24.17
2018-02-19T16:11:23.518Z,25.13
2018-02-19T16:13:51.025Z,24.33
2018-02-19T16:16:18.551Z,23.87
2018-02-19T16:18:46.109Z,25.63
2018-02-19T16:21:13.607Z,26.43
2018-02-19T16:23:41.206Z,26.27
2018-02-19T16:26:08.703Z,25.10
2018-02-19T16:28:36.230Z,26.10
2018-02-19T16:31:03.729Z,24.50
2018-02-19T16:33:31.225Z,25.40
2018-02-19T16:35:58.777Z,25.13
2018-02-19T16:38:27.066Z,24.20
2018-02-19T16:40:54.641Z,23.90
2018-02-19T16:43:22.161Z,25.47
2018-02-19T16:45:50.416Z,24.90
2018-02-19T16:48:17.911Z,25.33
2018-02-19T16:50:45.454Z,27.17
2018-02-19T16:53:13.022Z,25.30
2018-02-19T16:55:40.575Z,24.80
2018-02-19T16:58:08.117Z,25.30
2018-02-19T17:00:36.428Z,24.23
2018-02-19T17:03:03.911Z,24.90
2018-02-19T17:05:31.443Z,25.47
2018-02-19T17:07:58.973Z,27.00
2018-02-19T17:10:27.235Z,25.57
2018-02-19T17:12:55.505Z,25.97
2018-02-19T17:15:23.810Z,26.80
2018-02-19T17:17:51.303Z,25.03
2018-02-19T17:20:19.046Z,25.30
2018-02-19T17:22:46.703Z,27.00
2018-02-19T17:25:14.242Z,25.93
2018-02-19T17:27:41.800Z,24.87
2018-02-19T17:30:09.359Z,26.50
2018-02-19T17:32:36.889Z,27.60
2018-02-19T17:35:05.777Z,27.10
2018-02-19T17:37:34.035Z,26.40
2018-02-19T17:40:01.562Z,26.27
2018-02-19T17:42:29.075Z,25.27
2018-02-19T17:44:57.367Z,26.00
2018-02-19T17:47:24.881Z,26.57
2018-02-19T17:49:52.372Z,26.93
2018-02-19T17:52:20.701Z,26.40
2018-02-19T17:54:48.214Z,27.03
2018-02-19T17:57:15.716Z,25.00
2018-02-19T17:59:43.237Z,27.13
2018-02-19T18:02:10.788Z,24.43
2018-02-19T18:04:38.279Z,23.60
2018-02-19T18:07:05.794Z,26.20
2018-02-19T18:09:33.373Z,25.00
2018-02-19T18:12:00.912Z,23.23
2018-02-19T18:14:28.435Z,25.20
2018-02-19T18:16:55.957Z,24.20
2018-02-19T18:19:23.452Z,24.27
2018-02-19T18:21:50.972Z,24.27
2018-02-19T18:24:18.461Z,23.23
2018-02-19T18:26:45.956Z,24.10
2018-02-19T18:29:13.471Z,26.90
2018-02-19T18:31:41.086Z,25.83
2018-02-19T18:34:08.606Z,25.77
2018-02-19T18:36:36.874Z,26.20
2018-02-19T18:39:05.136Z,27.00
2018-02-19T18:41:32.636Z,26.00
2018-02-19T18:44:00.150Z,26.83
2018-02-19T18:46:27.679Z,25.27
2018-02-19T18:48:55.191Z,27.77
2018-02-19T18:51:23.468Z,25.33
2018-02-19T18:53:51.741Z,24.97
2018-02-19T18:56:20.023Z,27.90
2018-02-19T18:58:47.545Z,26.70
2018-02-19T19:01:15.073Z,29.33
2018-02-19T19:03:42.595Z,27.47
2018-02-19T19:06:10.105Z,27.30
2018-02-19T19:08:49.524Z,27.13
2018-02-19T19:11:17.029Z,25.80
2018-02-19T19:13:45.326Z,26.57
2018-02-19T19:16:12.826Z,27.47
2018-02-19T19:18:40.465Z,26.03
2018-02-19T19:21:07.976Z,24.57
2018-02-19T19:23:36.239Z,26.53
2018-02-19T19:26:03.762Z,26.30
2018-02-19T19:28:31.271Z,23.87
2018-02-19T19:30:59.527Z,24.00
2018-02-19T19:33:27.050Z,26.33
2018-02-19T19:35:54.567Z,24.80
2018-02-19T19:38:22.528Z,24.90
2018-02-19T19:40:50.088Z,24.60
2018-02-19T19:43:18.378Z,24.67
2018-02-19T19:45:45.928Z,23.10
2018-02-19T19:48:13.482Z,23.30
2018-02-19T19:50:41.061Z,24.57
2018-02-19T19:53:08.562Z,23.67
2018-02-19T19:55:36.064Z,24.27
2018-02-19T19:58:03.582Z,24.57
2018-02-19T20:00:31.092Z,26.57
2018-02-19T20:02:58.598Z,24.73
2018-02-19T20:05:26.125Z,25.37
2018-02-19T20:07:53.744Z,26.40
2018-02-19T20:10:21.256Z,29.43
2018-02-19T20:12:48.781Z,26.30
2018-02-19T20:15:16.289Z,28.23
2018-02-19T20:17:44.600Z,26.17
2018-02-19T20:20:12.140Z,28.50
2018-02-19T20:22:40.544Z,27.10
2018-02-19T20:25:08.074Z,25.93
2018-02-19T20:27:35.571Z,23.17
2018-02-19T20:30:03.068Z,25.10
2018-02-19T20:32:30.573Z,26.40
2018-02-19T20:34:58.080Z,25.80
2018-02-19T20:37:26.086Z,25.03
2018-02-19T20:39:54.779Z,25.33
2018-02-19T20:42:33.042Z,27.47
2018-02-19T20:45:01.311Z,27.47
2018-02-19T20:47:29.826Z,26.20
2018-02-19T20:49:57.369Z,26.20
2018-02-19T20:52:24.936Z,29.77
2018-02-19T20:55:03.366Z,27.10
2018-02-19T20:57:31.202Z,27.30
2018-02-19T20:59:58.773Z,26.67
2018-02-19T21:02:26.334Z,26.40
2018-02-19T21:04:53.843Z,27.07
2018-02-19T21:07:21.437Z,25.87
2018-02-19T21:09:48.961Z,28.10
2018-02-19T21:12:17.568Z,28.43
2018-02-19T21:14:45.875Z,28.27
2018-02-19T21:17:13.393Z,29.03
2018-02-19T21:19:41.663Z,29.97
2018-02-19T21:22:09.957Z,27.23
2018-02-19T21:24:37.455Z,27.70
2018-02-19T21:27:04.956Z,28.77
2018-02-19T21:29:33.236Z,30.10
2018-02-19T21:32:00.733Z,26.70
2018-02-19T21:34:28.262Z,29.37
2018-02-19T21:36:55.790Z,28.30
2018-02-19T21:39:23.295Z,28.60
2018-02-19T21:41:50.837Z,26.43
2018-02-19T21:44:18.342Z,29.27
2018-02-19T21:46:46.653Z,26.97
2018-02-19T21:49:14.943Z,27.30
2018-02-19T21:51:42.455Z,28.53
2018-02-19T21:54:09.969Z,28.57
2018-02-19T21:56:37.498Z,27.43
2018-02-19T21:59:05.809Z,29.33
2018-02-19T22:01:33.307Z,29.20
2018-02-19T22:04:00.816Z,30.37
2018-02-19T22:06:28.333Z,26.63
2018-02-19T22:08:56.595Z,30.90
2018-02-19T22:11:24.245Z,27.90
2018-02-19T22:13:52.239Z,27.50
2018-02-19T22:16:32.031Z,28.27
2018-02-19T22:19:00.533Z,28.13
2018-02-19T22:21:29.288Z,25.53
2018-02-19T22:23:57.091Z,27.37
2018-02-19T22:26:24.829Z,28.13
2018-02-19T22:28:53.360Z,27.23
2018-02-19T22:31:22.066Z,27.83
2018-02-19T22:33:49.905Z,28.80
2018-02-19T22:36:17.566Z,25.40
2018-02-19T22:38:46.987Z,27.10
2018-02-19T22:41:15.826Z,25.70
2018-02-19T22:43:44.257Z,27.60
2018-02-19T22:46:12.916Z,25.17
2018-02-19T22:48:51.931Z,27.20
2018-02-19T22:51:20.099Z,27.50
2018-02-19T22:53:48.321Z,28.33
2018-02-19T22:56:16.773Z,28.07
2018-02-19T22:58:45.180Z,29.17
2018-02-19T23:01:13.143Z,29.90
2018-02-19T23:03:41.354Z,28.17
2018-02-19T23:06:20.235Z,29.03
2018-02-19T23:08:48.382Z,27.90
2018-02-19T23:11:16.715Z,29.00
2018-02-19T23:13:46.179Z,30.90
2018-02-19T23:16:13.747Z,31.00
2018-02-19T23:18:41.635Z,33.07
2018-02-19T23:21:09.916Z,33.10
2018-02-19T23:23:38.181Z,31.87
2018-02-19T23:26:05.721Z,34.93
2018-02-19T23:28:33.231Z,31.90
2018-02-19T23:31:00.720Z,32.20
2018-02-19T23:33:28.345Z,33.87
2018-02-19T23:35:55.858Z,31.87
2018-02-19T23:38:23.464Z,33.67
2018-02-19T23:40:50.971Z,32.10
2018-02-19T23:43:18.481Z,34.07
2018-02-19T23:45:45.997Z,30.47
2018-02-19T23:48:13.503Z,32.97
2018-02-19T23:50:41.017Z,29.00
2018-02-19T23:53:09.303Z,29.27
2018-02-19T23:55:37.583Z,28.90
2018-02-19T23:58:05.849Z,30.23
